SIA121 WMKK-WSSS
Flight info
| Callsign | SIA121 |
|---|---|
| Flight time | 0h 37m |
| Altitude | 23000 |
| Route | RUSBU1D RUSBU Y511 TOPOR A464 ARAMA DCT TEBUN TEBUN1A |
| Aircraft | A359/H-SDE2E3GHIJ3J4J5LM1ORWXY/LB1D1 |
Departure
| Time | 2026-05-03 20:25 |
|---|---|
| Airport | Kuala Lumpur International Airport (WMKK) |
Arrival
| Time | 2026-05-03 21:03 |
|---|---|
| Airport | Singapore Changi Airport (WSSS) |
| Time | Latitude | Longitude | Altitude | Speed | Heading |
|---|---|---|---|---|---|
| 2026-05-03 20:15 | 2.73671 | 101.71113 | 64 ft | 0 kts | 146° |
| 2026-05-03 20:17 | 2.73685 | 101.71104 | 70 ft | 2 kts | 144° |
| 2026-05-03 20:17 | 2.73698 | 101.71094 | 78 ft | 2 kts | 141° |
| 2026-05-03 20:18 | 2.73710 | 101.71083 | 49 ft | 2 kts | 132° |
| 2026-05-03 20:18 | 2.73719 | 101.71070 | 55 ft | 2 kts | 89° |
| 2026-05-03 20:18 | 2.73716 | 101.71058 | 55 ft | 1 kts | 58° |
| 2026-05-03 20:18 | 2.73715 | 101.71056 | 55 ft | 0 kts | 57° |
| 2026-05-03 20:20 | 2.73719 | 101.71063 | 55 ft | 5 kts | 58° |
| 2026-05-03 20:20 | 2.73751 | 101.71111 | 55 ft | 10 kts | 56° |
| 2026-05-03 20:20 | 2.73795 | 101.71177 | 59 ft | 13 kts | 56° |
| 2026-05-03 20:20 | 2.73851 | 101.71256 | 55 ft | 15 kts | 52° |
| 2026-05-03 20:21 | 2.73922 | 101.71341 | 54 ft | 17 kts | 52° |
| 2026-05-03 20:21 | 2.73986 | 101.71445 | 56 ft | 19 kts | 58° |
| 2026-05-03 20:21 | 2.74056 | 101.71555 | 57 ft | 18 kts | 58° |
| 2026-05-03 20:21 | 2.74132 | 101.71661 | 56 ft | 20 kts | 56° |
| 2026-05-03 20:22 | 2.74211 | 101.71779 | 54 ft | 21 kts | 56° |
| 2026-05-03 20:22 | 2.74298 | 101.71907 | 58 ft | 23 kts | 55° |
| 2026-05-03 20:22 | 2.74385 | 101.72031 | 54 ft | 19 kts | 56° |
| 2026-05-03 20:22 | 2.74462 | 101.72148 | 56 ft | 21 kts | 54° |
| 2026-05-03 20:23 | 2.74562 | 101.72158 | 55 ft | 14 kts | 328° |
| 2026-05-03 20:23 | 2.74651 | 101.72105 | 55 ft | 15 kts | 325° |
| 2026-05-03 20:23 | 2.74704 | 101.72075 | 60 ft | 13 kts | 340° |
| 2026-05-03 20:23 | 2.74781 | 101.72119 | 55 ft | 10 kts | 53° |
| 2026-05-03 20:24 | 2.74834 | 101.72180 | 56 ft | 13 kts | 34° |
| 2026-05-03 20:24 | 2.74882 | 101.72173 | 54 ft | 11 kts | 326° |
| 2026-05-03 20:24 | 2.75077 | 101.72040 | 54 ft | 69 kts | 326° |
| 2026-05-03 20:24 | 2.75962 | 101.71449 | 55 ft | 155 kts | 326° |
| 2026-05-03 20:25 | 2.76616 | 101.71008 | 158 ft | 181 kts | 326° |
| 2026-05-03 20:25 | 2.77645 | 101.70304 | 933 ft | 177 kts | 326° |
| 2026-05-03 20:25 | 2.78668 | 101.69611 | 1622 ft | 184 kts | 326° |
| 2026-05-03 20:25 | 2.79881 | 101.68944 | 1875 ft | 215 kts | 337° |
| 2026-05-03 20:26 | 2.81373 | 101.68377 | 2185 ft | 243 kts | 340° |
| 2026-05-03 20:26 | 2.83029 | 101.67794 | 2724 ft | 258 kts | 340° |
| 2026-05-03 20:26 | 2.84743 | 101.67189 | 3491 ft | 264 kts | 340° |
| 2026-05-03 20:26 | 2.86485 | 101.66568 | 4303 ft | 267 kts | 340° |
| 2026-05-03 20:27 | 2.88270 | 101.66015 | 5075 ft | 272 kts | 348° |
| 2026-05-03 20:27 | 2.90164 | 101.66023 | 5838 ft | 276 kts | 13° |
| 2026-05-03 20:27 | 2.91891 | 101.66865 | 6608 ft | 281 kts | 39° |
| 2026-05-03 20:27 | 2.93097 | 101.68398 | 7365 ft | 284 kts | 62° |
| 2026-05-03 20:28 | 2.93941 | 101.70189 | 8185 ft | 286 kts | 66° |
| 2026-05-03 20:28 | 2.94597 | 101.72070 | 9059 ft | 288 kts | 78° |
| 2026-05-03 20:28 | 2.94627 | 101.74065 | 9904 ft | 289 kts | 101° |
| 2026-05-03 20:28 | 2.93862 | 101.75942 | 10484 ft | 301 kts | 124° |
| 2026-05-03 20:29 | 2.92413 | 101.77545 | 10819 ft | 322 kts | 136° |
| 2026-05-03 20:29 | 2.90709 | 101.79103 | 11108 ft | 341 kts | 137° |
| 2026-05-03 20:29 | 2.88910 | 101.80742 | 11387 ft | 358 kts | 137° |
| 2026-05-03 20:29 | 2.87052 | 101.82455 | 11868 ft | 366 kts | 136° |
| 2026-05-03 20:30 | 2.85176 | 101.84200 | 12478 ft | 370 kts | 136° |
| 2026-05-03 20:30 | 2.83286 | 101.85966 | 13102 ft | 374 kts | 136° |
| 2026-05-03 20:30 | 2.81381 | 101.87752 | 13722 ft | 377 kts | 136° |
| 2026-05-03 20:30 | 2.79461 | 101.89554 | 14216 ft | 380 kts | 136° |
| 2026-05-03 20:31 | 2.77525 | 101.91372 | 14767 ft | 383 kts | 136° |
| 2026-05-03 20:31 | 2.75578 | 101.93201 | 15309 ft | 386 kts | 136° |
| 2026-05-03 20:31 | 2.73616 | 101.95045 | 15842 ft | 388 kts | 136° |
| 2026-05-03 20:31 | 2.71640 | 101.96901 | 16373 ft | 391 kts | 136° |
| 2026-05-03 20:32 | 2.69650 | 101.98773 | 16907 ft | 394 kts | 136° |
| 2026-05-03 20:32 | 2.67644 | 102.00658 | 17437 ft | 397 kts | 136° |
| 2026-05-03 20:32 | 2.65625 | 102.02555 | 17934 ft | 400 kts | 136° |
| 2026-05-03 20:32 | 2.63619 | 102.04440 | 18409 ft | 403 kts | 136° |
| 2026-05-03 20:33 | 2.61545 | 102.06389 | 18869 ft | 405 kts | 136° |
| 2026-05-03 20:33 | 2.59511 | 102.08295 | 19277 ft | 408 kts | 136° |
| 2026-05-03 20:33 | 2.57312 | 102.10116 | 19686 ft | 412 kts | 141° |
| 2026-05-03 20:33 | 2.55013 | 102.11850 | 20104 ft | 415 kts | 142° |
| 2026-05-03 20:34 | 2.52683 | 102.13583 | 20544 ft | 419 kts | 142° |
| 2026-05-03 20:34 | 2.50339 | 102.15326 | 20985 ft | 422 kts | 142° |
| 2026-05-03 20:34 | 2.47979 | 102.17084 | 21415 ft | 425 kts | 142° |
| 2026-05-03 20:34 | 2.45602 | 102.18856 | 21853 ft | 428 kts | 142° |
| 2026-05-03 20:35 | 2.43207 | 102.20642 | 22294 ft | 431 kts | 142° |
| 2026-05-03 20:35 | 2.40795 | 102.22442 | 22704 ft | 434 kts | 142° |
| 2026-05-03 20:35 | 2.38365 | 102.24255 | 22858 ft | 440 kts | 142° |
| 2026-05-03 20:35 | 2.35877 | 102.26112 | 22867 ft | 453 kts | 142° |
| 2026-05-03 20:36 | 2.33322 | 102.28018 | 22863 ft | 462 kts | 142° |
| 2026-05-03 20:36 | 2.30736 | 102.29948 | 22868 ft | 465 kts | 142° |
| 2026-05-03 20:36 | 2.28142 | 102.31883 | 22870 ft | 465 kts | 142° |
| 2026-05-03 20:36 | 2.25550 | 102.33817 | 22873 ft | 465 kts | 142° |
| 2026-05-03 20:37 | 2.22953 | 102.35754 | 22872 ft | 465 kts | 142° |
| 2026-05-03 20:37 | 2.20357 | 102.37690 | 22870 ft | 465 kts | 142° |
| 2026-05-03 20:37 | 2.17762 | 102.39627 | 22870 ft | 466 kts | 142° |
| 2026-05-03 20:37 | 2.15168 | 102.41562 | 22869 ft | 466 kts | 142° |
| 2026-05-03 20:38 | 2.12573 | 102.43498 | 22869 ft | 465 kts | 142° |
| 2026-05-03 20:38 | 2.09981 | 102.45431 | 22867 ft | 465 kts | 142° |
| 2026-05-03 20:38 | 2.07389 | 102.47365 | 22867 ft | 465 kts | 142° |
| 2026-05-03 20:38 | 2.04798 | 102.49298 | 22867 ft | 465 kts | 142° |
| 2026-05-03 20:39 | 2.02332 | 102.51384 | 22866 ft | 464 kts | 134° |
| 2026-05-03 20:39 | 2.00186 | 102.53790 | 22868 ft | 463 kts | 129° |
| 2026-05-03 20:39 | 1.98188 | 102.56320 | 22867 ft | 463 kts | 127° |
| 2026-05-03 20:39 | 1.96265 | 102.58903 | 22867 ft | 463 kts | 126° |
| 2026-05-03 20:40 | 1.94368 | 102.61504 | 22867 ft | 463 kts | 126° |
| 2026-05-03 20:40 | 1.92467 | 102.64109 | 22867 ft | 464 kts | 126° |
| 2026-05-03 20:40 | 1.90557 | 102.66704 | 22867 ft | 464 kts | 126° |
| 2026-05-03 20:40 | 1.88635 | 102.69291 | 22867 ft | 464 kts | 126° |
| 2026-05-03 20:41 | 1.86703 | 102.71870 | 22867 ft | 464 kts | 126° |
| 2026-05-03 20:41 | 1.84763 | 102.74449 | 22868 ft | 464 kts | 126° |
| 2026-05-03 20:41 | 1.82824 | 102.77021 | 22867 ft | 464 kts | 126° |
| 2026-05-03 20:41 | 1.80882 | 102.79595 | 22867 ft | 464 kts | 127° |
| 2026-05-03 20:42 | 1.78953 | 102.82181 | 22867 ft | 464 kts | 125° |
| 2026-05-03 20:42 | 1.77046 | 102.84783 | 22867 ft | 464 kts | 124° |
| 2026-05-03 20:42 | 1.75169 | 102.87349 | 22868 ft | 464 kts | 124° |
| 2026-05-03 20:42 | 1.73446 | 102.90066 | 22867 ft | 463 kts | 118° |
| 2026-05-03 20:43 | 1.71861 | 102.92866 | 22868 ft | 463 kts | 117° |
| 2026-05-03 20:43 | 1.70322 | 102.95693 | 22867 ft | 463 kts | 117° |
| 2026-05-03 20:43 | 1.68808 | 102.98534 | 22867 ft | 463 kts | 116° |
| 2026-05-03 20:43 | 1.67302 | 103.01383 | 22867 ft | 463 kts | 116° |
| 2026-05-03 20:44 | 1.65797 | 103.04234 | 22865 ft | 463 kts | 116° |
| 2026-05-03 20:44 | 1.64290 | 103.07078 | 22869 ft | 463 kts | 116° |
| 2026-05-03 20:44 | 1.62529 | 103.09784 | 22861 ft | 465 kts | 127° |
| 2026-05-03 20:44 | 1.60231 | 103.12054 | 22863 ft | 467 kts | 141° |
| 2026-05-03 20:45 | 1.57434 | 103.13699 | 22875 ft | 468 kts | 154° |
| 2026-05-03 20:45 | 1.54440 | 103.14952 | 22869 ft | 467 kts | 156° |
| 2026-05-03 20:45 | 1.51419 | 103.16142 | 22868 ft | 466 kts | 157° |
| 2026-05-03 20:45 | 1.48408 | 103.17326 | 22691 ft | 463 kts | 156° |
| 2026-05-03 20:46 | 1.45430 | 103.18502 | 22036 ft | 458 kts | 156° |
| 2026-05-03 20:46 | 1.42486 | 103.19668 | 21387 ft | 452 kts | 156° |
| 2026-05-03 20:46 | 1.39580 | 103.20822 | 20738 ft | 447 kts | 156° |
| 2026-05-03 20:46 | 1.36704 | 103.21964 | 20092 ft | 442 kts | 156° |
| 2026-05-03 20:47 | 1.33855 | 103.23097 | 19446 ft | 438 kts | 156° |
| 2026-05-03 20:47 | 1.31033 | 103.24219 | 18803 ft | 434 kts | 156° |
| 2026-05-03 20:47 | 1.28235 | 103.25332 | 18146 ft | 431 kts | 156° |
| 2026-05-03 20:47 | 1.25473 | 103.26461 | 17412 ft | 427 kts | 153° |
| 2026-05-03 20:48 | 1.22888 | 103.27806 | 16735 ft | 421 kts | 148° |
| 2026-05-03 20:48 | 1.20363 | 103.29256 | 16093 ft | 416 kts | 148° |
| 2026-05-03 20:48 | 1.17873 | 103.30704 | 15448 ft | 411 kts | 147° |
| 2026-05-03 20:48 | 1.15413 | 103.32133 | 14803 ft | 407 kts | 148° |
| 2026-05-03 20:49 | 1.12971 | 103.33549 | 14158 ft | 404 kts | 148° |
| 2026-05-03 20:49 | 1.10555 | 103.34949 | 13499 ft | 400 kts | 148° |
| 2026-05-03 20:49 | 1.08154 | 103.36338 | 12809 ft | 397 kts | 148° |
| 2026-05-03 20:49 | 1.05785 | 103.37709 | 12230 ft | 390 kts | 148° |
| 2026-05-03 20:50 | 1.03448 | 103.39062 | 11661 ft | 386 kts | 148° |
| 2026-05-03 20:50 | 1.01139 | 103.40414 | 11038 ft | 384 kts | 147° |
| 2026-05-03 20:50 | 0.99110 | 103.42076 | 10740 ft | 369 kts | 130° |
| 2026-05-03 20:50 | 0.97816 | 103.44198 | 10648 ft | 350 kts | 109° |
| 2026-05-03 20:51 | 0.97312 | 103.46499 | 10541 ft | 332 kts | 95° |
| 2026-05-03 20:51 | 0.97124 | 103.48741 | 10408 ft | 317 kts | 92° |
| 2026-05-03 20:51 | 0.96973 | 103.50886 | 10255 ft | 303 kts | 93° |
| 2026-05-03 20:51 | 0.96821 | 103.52942 | 10138 ft | 291 kts | 93° |
| 2026-05-03 20:52 | 0.96668 | 103.54921 | 10001 ft | 281 kts | 93° |
| 2026-05-03 20:52 | 0.96573 | 103.56874 | 9691 ft | 287 kts | 87° |
| 2026-05-03 20:52 | 0.96758 | 103.58889 | 9316 ft | 294 kts | 81° |
| 2026-05-03 20:52 | 0.97043 | 103.60913 | 8985 ft | 294 kts | 81° |
| 2026-05-03 20:53 | 0.97336 | 103.62932 | 8671 ft | 293 kts | 80° |
| 2026-05-03 20:53 | 0.97624 | 103.64942 | 8330 ft | 292 kts | 81° |
| 2026-05-03 20:53 | 0.97907 | 103.66947 | 8003 ft | 291 kts | 82° |
| 2026-05-03 20:53 | 0.98160 | 103.68950 | 7677 ft | 290 kts | 83° |
| 2026-05-03 20:54 | 0.98466 | 103.70937 | 7346 ft | 289 kts | 76° |
| 2026-05-03 20:54 | 1.00308 | 103.74457 | 6700 ft | 286 kts | 57° |
| 2026-05-03 20:54 | 1.01388 | 103.76121 | 6379 ft | 285 kts | 57° |
| 2026-05-03 20:55 | 1.02460 | 103.77776 | 6041 ft | 283 kts | 57° |
| 2026-05-03 20:55 | 1.03527 | 103.79427 | 5714 ft | 282 kts | 57° |
| 2026-05-03 20:55 | 1.04587 | 103.81073 | 5391 ft | 281 kts | 57° |
| 2026-05-03 20:55 | 1.05637 | 103.82707 | 5077 ft | 279 kts | 57° |
| 2026-05-03 20:56 | 1.06684 | 103.84336 | 4761 ft | 278 kts | 57° |
| 2026-05-03 20:56 | 1.07727 | 103.85961 | 4430 ft | 277 kts | 57° |
| 2026-05-03 20:56 | 1.08837 | 103.87519 | 4113 ft | 274 kts | 47° |
| 2026-05-03 20:56 | 1.10384 | 103.88597 | 3914 ft | 272 kts | 23° |
| 2026-05-03 20:57 | 1.12157 | 103.89248 | 3488 ft | 272 kts | 17° |
| 2026-05-03 20:57 | 1.13962 | 103.89823 | 3043 ft | 272 kts | 17° |
| 2026-05-03 20:57 | 1.15726 | 103.90385 | 2848 ft | 254 kts | 18° |
| 2026-05-03 20:57 | 1.17345 | 103.90908 | 2767 ft | 238 kts | 18° |
| 2026-05-03 20:58 | 1.18882 | 103.91408 | 2667 ft | 227 kts | 18° |
| 2026-05-03 20:58 | 1.20337 | 103.91884 | 2564 ft | 210 kts | 18° |
| 2026-05-03 20:58 | 1.21707 | 103.92250 | 2312 ft | 196 kts | 9° |
| 2026-05-03 20:58 | 1.22961 | 103.92602 | 2227 ft | 179 kts | 23° |
| 2026-05-03 20:59 | 1.24043 | 103.93082 | 2229 ft | 164 kts | 23° |
| 2026-05-03 20:59 | 1.25068 | 103.93497 | 2110 ft | 155 kts | 21° |
| 2026-05-03 20:59 | 1.26054 | 103.93896 | 1927 ft | 151 kts | 22° |
| 2026-05-03 20:59 | 1.26997 | 103.94301 | 1713 ft | 144 kts | 24° |
| 2026-05-03 21:00 | 1.27902 | 103.94693 | 1541 ft | 141 kts | 24° |
| 2026-05-03 21:00 | 1.28193 | 103.94818 | 1479 ft | 141 kts | 24° |
| 2026-05-03 21:00 | 1.29702 | 103.95466 | 1173 ft | 141 kts | 24° |
| 2026-05-03 21:00 | 1.30603 | 103.95855 | 991 ft | 141 kts | 24° |
| 2026-05-03 21:01 | 1.31500 | 103.96244 | 814 ft | 140 kts | 24° |
| 2026-05-03 21:01 | 1.32383 | 103.96658 | 627 ft | 140 kts | 25° |
| 2026-05-03 21:01 | 1.33272 | 103.97051 | 410 ft | 140 kts | 23° |
| 2026-05-03 21:01 | 1.34164 | 103.97429 | 228 ft | 139 kts | 22° |
| 2026-05-03 21:02 | 1.35041 | 103.97809 | 66 ft | 140 kts | 22° |
| 2026-05-03 21:02 | 1.35889 | 103.98164 | 35 ft | 119 kts | 22° |
| 2026-05-03 21:02 | 1.36552 | 103.98442 | 37 ft | 88 kts | 22° |
| 2026-05-03 21:02 | 1.37020 | 103.98639 | 34 ft | 58 kts | 23° |
| 2026-05-03 21:03 | 1.37290 | 103.98755 | 35 ft | 34 kts | 28° |
| 2026-05-03 21:03 | 1.37471 | 103.98904 | 35 ft | 33 kts | 51° |
| 2026-05-03 21:03 | 1.37553 | 103.99012 | 34 ft | 16 kts | 53° |
| 2026-05-03 21:03 | 1.37607 | 103.99083 | 33 ft | 13 kts | 62° |
| 2026-05-03 21:04 | 1.37612 | 103.99165 | 32 ft | 13 kts | 107° |
| 2026-05-03 21:04 | 1.37541 | 103.99216 | 31 ft | 14 kts | 180° |
| 2026-05-03 21:04 | 1.37446 | 103.99184 | 31 ft | 15 kts | 205° |
| 2026-05-03 21:04 | 1.37342 | 103.99139 | 31 ft | 18 kts | 203° |
| 2026-05-03 21:05 | 1.37222 | 103.99088 | 31 ft | 20 kts | 203° |
| 2026-05-03 21:05 | 1.37099 | 103.99032 | 31 ft | 19 kts | 216° |
| 2026-05-03 21:05 | 1.37036 | 103.98947 | 31 ft | 15 kts | 217° |
| 2026-05-03 21:05 | 1.36933 | 103.98899 | 31 ft | 18 kts | 202° |
| 2026-05-03 21:06 | 1.36814 | 103.98848 | 31 ft | 19 kts | 203° |
| 2026-05-03 21:06 | 1.36691 | 103.98801 | 32 ft | 19 kts | 187° |
| 2026-05-03 21:06 | 1.36565 | 103.98812 | 31 ft | 15 kts | 173° |
| 2026-05-03 21:06 | 1.36459 | 103.98814 | 31 ft | 14 kts | 146° |
| 2026-05-03 21:07 | 1.36420 | 103.98888 | 31 ft | 1 kts | 109° |